<?xml version="1.0" encoding="UTF-8" standalone="no" ?>
<gpx xmlns="http://www.topografix.com/GPX/1/1" xmlns:xsi="http://www.w3.org/2001/XMLSchema-instance" xsi:schemaLocation="http://www.topografix.com/GPX/1/1 http://www.topografix.com/GPX/1/1/gpx.xsd" version="1.1" creator="VisuGPX - https://www.visugpx.com">
  <metadata>
    <name>15484604-12654703-Lozanne_Gr2_Pierres dorées en Beaujolais</name>
  </metadata>
  <trk>
    <name><![CDATA[15484604-12654703-Lozanne_Gr2_Pierres dorées en Beaujolais]]></name>
    <trkseg>
      <trkpt lat="45.85517" lon="4.68151">
        <ele>204</ele>
        <time>2022-09-04T04:53:50Z</time>
      </trkpt>
      <trkpt lat="45.85576" lon="4.68132">
        <ele>202</ele>
        <time>2022-09-04T04:55:11Z</time>
      </trkpt>
      <trkpt lat="45.85631" lon="4.68207">
        <ele>200</ele>
        <time>2022-09-04T04:56:52Z</time>
      </trkpt>
      <trkpt lat="45.85704" lon="4.68286">
        <ele>200</ele>
        <time>2022-09-04T04:58:54Z</time>
      </trkpt>
      <trkpt lat="45.8575" lon="4.68382">
        <ele>201</ele>
        <time>2022-09-04T05:00:42Z</time>
      </trkpt>
      <trkpt lat="45.85786" lon="4.68554">
        <ele>200</ele>
        <time>2022-09-04T05:03:29Z</time>
      </trkpt>
      <trkpt lat="45.85808" lon="4.68753">
        <ele>199</ele>
        <time>2022-09-04T05:06:36Z</time>
      </trkpt>
      <trkpt lat="45.85876" lon="4.68778">
        <ele>198</ele>
        <time>2022-09-04T05:08:10Z</time>
      </trkpt>
      <trkpt lat="45.85908" lon="4.68704">
        <ele>198</ele>
        <time>2022-09-04T05:09:31Z</time>
      </trkpt>
      <trkpt lat="45.86004" lon="4.68687">
        <ele>203</ele>
        <time>2022-09-04T05:11:40Z</time>
      </trkpt>
      <trkpt lat="45.86055" lon="4.68983">
        <ele>200</ele>
        <time>2022-09-04T05:16:23Z</time>
      </trkpt>
      <trkpt lat="45.86112" lon="4.6906">
        <ele>201</ele>
        <time>2022-09-04T05:18:08Z</time>
      </trkpt>
      <trkpt lat="45.86339" lon="4.69056">
        <ele>216</ele>
        <time>2022-09-04T05:23:11Z</time>
      </trkpt>
      <trkpt lat="45.86342" lon="4.69129">
        <ele>216</ele>
        <time>2022-09-04T05:24:19Z</time>
      </trkpt>
      <trkpt lat="45.86652" lon="4.68962">
        <ele>231</ele>
        <time>2022-09-04T05:31:41Z</time>
      </trkpt>
      <trkpt lat="45.86673" lon="4.69069">
        <ele>231</ele>
        <time>2022-09-04T05:33:24Z</time>
      </trkpt>
      <trkpt lat="45.86745" lon="4.68975">
        <ele>246</ele>
        <time>2022-09-04T05:35:34Z</time>
      </trkpt>
      <trkpt lat="45.86951" lon="4.68726">
        <ele>290</ele>
        <time>2022-09-04T05:41:33Z</time>
      </trkpt>
      <trkpt lat="45.87119" lon="4.68627">
        <ele>310</ele>
        <time>2022-09-04T05:45:35Z</time>
      </trkpt>
      <trkpt lat="45.8725" lon="4.6858">
        <ele>327</ele>
        <time>2022-09-04T05:48:36Z</time>
      </trkpt>
      <trkpt lat="45.87405" lon="4.68455">
        <ele>341</ele>
        <time>2022-09-04T05:52:33Z</time>
      </trkpt>
      <trkpt lat="45.87489" lon="4.68359">
        <ele>341</ele>
        <time>2022-09-04T05:54:56Z</time>
      </trkpt>
      <trkpt lat="45.87567" lon="4.68223">
        <ele>342</ele>
        <time>2022-09-04T05:57:40Z</time>
      </trkpt>
      <trkpt lat="45.87602" lon="4.68054">
        <ele>342</ele>
        <time>2022-09-04T06:00:24Z</time>
      </trkpt>
      <trkpt lat="45.87672" lon="4.67865">
        <ele>350</ele>
        <time>2022-09-04T06:03:42Z</time>
      </trkpt>
      <trkpt lat="45.87786" lon="4.67824">
        <ele>360</ele>
        <time>2022-09-04T06:06:19Z</time>
      </trkpt>
      <trkpt lat="45.87865" lon="4.67813">
        <ele>364</ele>
        <time>2022-09-04T06:08:05Z</time>
      </trkpt>
      <trkpt lat="45.87932" lon="4.67819">
        <ele>365</ele>
        <time>2022-09-04T06:09:35Z</time>
      </trkpt>
      <trkpt lat="45.87827" lon="4.67761">
        <ele>367</ele>
        <time>2022-09-04T06:12:05Z</time>
      </trkpt>
      <trkpt lat="45.87853" lon="4.67759">
        <ele>368</ele>
        <time>2022-09-04T06:12:40Z</time>
      </trkpt>
      <trkpt lat="45.87878" lon="4.67738">
        <ele>370</ele>
        <time>2022-09-04T06:13:18Z</time>
      </trkpt>
      <trkpt lat="45.87895" lon="4.67697">
        <ele>371</ele>
        <time>2022-09-04T06:14:03Z</time>
      </trkpt>
      <trkpt lat="45.87895" lon="4.6764">
        <ele>372</ele>
        <time>2022-09-04T06:14:56Z</time>
      </trkpt>
      <trkpt lat="45.87923" lon="4.67618">
        <ele>371</ele>
        <time>2022-09-04T06:15:38Z</time>
      </trkpt>
      <trkpt lat="45.8806" lon="4.67299">
        <ele>354</ele>
        <time>2022-09-04T06:21:26Z</time>
      </trkpt>
      <trkpt lat="45.88174" lon="4.67374">
        <ele>343</ele>
        <time>2022-09-04T06:24:14Z</time>
      </trkpt>
      <trkpt lat="45.88259" lon="4.67376">
        <ele>343</ele>
        <time>2022-09-04T06:26:07Z</time>
      </trkpt>
      <trkpt lat="45.88473" lon="4.67447">
        <ele>332</ele>
        <time>2022-09-04T06:31:00Z</time>
      </trkpt>
      <trkpt lat="45.88511" lon="4.6731">
        <ele>346</ele>
        <time>2022-09-04T06:33:17Z</time>
      </trkpt>
      <trkpt lat="45.88577" lon="4.67187">
        <ele>368</ele>
        <time>2022-09-04T06:35:42Z</time>
      </trkpt>
      <trkpt lat="45.88601" lon="4.67169">
        <ele>373</ele>
        <time>2022-09-04T06:36:18Z</time>
      </trkpt>
      <trkpt lat="45.88628" lon="4.67168">
        <ele>377</ele>
        <time>2022-09-04T06:36:54Z</time>
      </trkpt>
      <trkpt lat="45.88702" lon="4.67139">
        <ele>387</ele>
        <time>2022-09-04T06:38:36Z</time>
      </trkpt>
      <trkpt lat="45.88759" lon="4.67172">
        <ele>392</ele>
        <time>2022-09-04T06:39:58Z</time>
      </trkpt>
      <trkpt lat="45.88776" lon="4.67046">
        <ele>398</ele>
        <time>2022-09-04T06:41:57Z</time>
      </trkpt>
      <trkpt lat="45.88776" lon="4.66959">
        <ele>407</ele>
        <time>2022-09-04T06:43:18Z</time>
      </trkpt>
      <trkpt lat="45.88983" lon="4.66842">
        <ele>418</ele>
        <time>2022-09-04T06:48:15Z</time>
      </trkpt>
      <trkpt lat="45.89012" lon="4.66784">
        <ele>415</ele>
        <time>2022-09-04T06:49:21Z</time>
      </trkpt>
      <trkpt lat="45.89019" lon="4.66713">
        <ele>408</ele>
        <time>2022-09-04T06:50:28Z</time>
      </trkpt>
      <trkpt lat="45.89114" lon="4.66782">
        <ele>409</ele>
        <time>2022-09-04T06:52:50Z</time>
      </trkpt>
      <trkpt lat="45.89147" lon="4.66797">
        <ele>409</ele>
        <time>2022-09-04T06:53:36Z</time>
      </trkpt>
      <trkpt lat="45.89148" lon="4.66849">
        <ele>414</ele>
        <time>2022-09-04T06:54:24Z</time>
      </trkpt>
      <trkpt lat="45.89177" lon="4.66867">
        <ele>415</ele>
        <time>2022-09-04T06:55:07Z</time>
      </trkpt>
      <trkpt lat="45.89362" lon="4.66951">
        <ele>434</ele>
        <time>2022-09-04T06:59:25Z</time>
      </trkpt>
      <trkpt lat="45.89483" lon="4.67089">
        <ele>442</ele>
        <time>2022-09-04T07:02:52Z</time>
      </trkpt>
      <trkpt lat="45.89527" lon="4.67234">
        <ele>434</ele>
        <time>2022-09-04T07:05:19Z</time>
      </trkpt>
      <trkpt lat="45.89623" lon="4.67268">
        <ele>434</ele>
        <time>2022-09-04T07:07:31Z</time>
      </trkpt>
      <trkpt lat="45.89813" lon="4.67234">
        <ele>428</ele>
        <time>2022-09-04T07:11:46Z</time>
      </trkpt>
      <trkpt lat="45.89966" lon="4.67235">
        <ele>422</ele>
        <time>2022-09-04T07:15:10Z</time>
      </trkpt>
      <trkpt lat="45.90033" lon="4.67246">
        <ele>418</ele>
        <time>2022-09-04T07:16:40Z</time>
      </trkpt>
      <trkpt lat="45.90176" lon="4.67335">
        <ele>409</ele>
        <time>2022-09-04T07:20:08Z</time>
      </trkpt>
      <trkpt lat="45.90291" lon="4.67421">
        <ele>402</ele>
        <time>2022-09-04T07:23:01Z</time>
      </trkpt>
      <trkpt lat="45.90358" lon="4.67459">
        <ele>400</ele>
        <time>2022-09-04T07:24:37Z</time>
      </trkpt>
      <trkpt lat="45.90417" lon="4.67451">
        <ele>399</ele>
        <time>2022-09-04T07:25:56Z</time>
      </trkpt>
      <trkpt lat="45.90452" lon="4.67323">
        <ele>403</ele>
        <time>2022-09-04T07:28:04Z</time>
      </trkpt>
      <trkpt lat="45.90497" lon="4.67189">
        <ele>404</ele>
        <time>2022-09-04T07:30:22Z</time>
      </trkpt>
      <trkpt lat="45.90548" lon="4.66996">
        <ele>410</ele>
        <time>2022-09-04T07:33:34Z</time>
      </trkpt>
      <trkpt lat="45.90632" lon="4.66703">
        <ele>382</ele>
        <time>2022-09-04T07:38:28Z</time>
      </trkpt>
      <trkpt lat="45.9059" lon="4.66642">
        <ele>375</ele>
        <time>2022-09-04T07:39:48Z</time>
      </trkpt>
      <trkpt lat="45.90585" lon="4.66569">
        <ele>368</ele>
        <time>2022-09-04T07:40:56Z</time>
      </trkpt>
      <trkpt lat="45.90578" lon="4.66345">
        <ele>358</ele>
        <time>2022-09-04T07:44:24Z</time>
      </trkpt>
      <trkpt lat="45.90567" lon="4.66089">
        <ele>335</ele>
        <time>2022-09-04T07:48:22Z</time>
      </trkpt>
      <trkpt lat="45.90709" lon="4.65983">
        <ele>322</ele>
        <time>2022-09-04T07:51:56Z</time>
      </trkpt>
      <trkpt lat="45.90783" lon="4.65977">
        <ele>322</ele>
        <time>2022-09-04T07:53:35Z</time>
      </trkpt>
      <trkpt lat="45.90827" lon="4.65922">
        <ele>318</ele>
        <time>2022-09-04T07:54:53Z</time>
      </trkpt>
      <trkpt lat="45.90928" lon="4.65907">
        <ele>319</ele>
        <time>2022-09-04T07:57:08Z</time>
      </trkpt>
      <trkpt lat="45.90993" lon="4.65919">
        <ele>319</ele>
        <time>2022-09-04T07:58:36Z</time>
      </trkpt>
      <trkpt lat="45.91084" lon="4.65785">
        <ele>316</ele>
        <time>2022-09-04T08:01:29Z</time>
      </trkpt>
      <trkpt lat="45.91124" lon="4.65614">
        <ele>310</ele>
        <time>2022-09-04T08:04:17Z</time>
      </trkpt>
      <trkpt lat="45.91175" lon="4.65524">
        <ele>301</ele>
        <time>2022-09-04T08:06:05Z</time>
      </trkpt>
      <trkpt lat="45.91169" lon="4.65366">
        <ele>285</ele>
        <time>2022-09-04T08:08:32Z</time>
      </trkpt>
      <trkpt lat="45.91212" lon="4.65374">
        <ele>286</ele>
        <time>2022-09-04T08:09:29Z</time>
      </trkpt>
      <trkpt lat="45.91264" lon="4.65407">
        <ele>290</ele>
        <time>2022-09-04T08:10:45Z</time>
      </trkpt>
      <trkpt lat="45.91278" lon="4.65449">
        <ele>294</ele>
        <time>2022-09-04T08:11:29Z</time>
      </trkpt>
      <trkpt lat="45.91265" lon="4.65521">
        <ele>302</ele>
        <time>2022-09-04T08:12:38Z</time>
      </trkpt>
      <trkpt lat="45.91305" lon="4.65553">
        <ele>303</ele>
        <time>2022-09-04T08:13:39Z</time>
      </trkpt>
      <trkpt lat="45.91367" lon="4.65945">
        <ele>325</ele>
        <time>2022-09-04T08:19:52Z</time>
      </trkpt>
      <trkpt lat="45.91384" lon="4.65964">
        <ele>327</ele>
        <time>2022-09-04T08:20:21Z</time>
      </trkpt>
      <trkpt lat="45.91388" lon="4.66112">
        <ele>339</ele>
        <time>2022-09-04T08:22:38Z</time>
      </trkpt>
      <trkpt lat="45.9137" lon="4.66192">
        <ele>348</ele>
        <time>2022-09-04T08:23:56Z</time>
      </trkpt>
      <trkpt lat="45.9137" lon="4.66277">
        <ele>356</ele>
        <time>2022-09-04T08:25:15Z</time>
      </trkpt>
      <trkpt lat="45.91313" lon="4.66479">
        <ele>364</ele>
        <time>2022-09-04T08:28:38Z</time>
      </trkpt>
      <trkpt lat="45.91313" lon="4.66765">
        <ele>369</ele>
        <time>2022-09-04T08:33:03Z</time>
      </trkpt>
      <trkpt lat="45.91307" lon="4.66825">
        <ele>371</ele>
        <time>2022-09-04T08:33:59Z</time>
      </trkpt>
      <trkpt lat="45.9118" lon="4.66819">
        <ele>379</ele>
        <time>2022-09-04T08:36:49Z</time>
      </trkpt>
      <trkpt lat="45.91009" lon="4.66903">
        <ele>389</ele>
        <time>2022-09-04T08:40:50Z</time>
      </trkpt>
      <trkpt lat="45.90918" lon="4.66893">
        <ele>392</ele>
        <time>2022-09-04T08:42:52Z</time>
      </trkpt>
      <trkpt lat="45.90751" lon="4.66918">
        <ele>400</ele>
        <time>2022-09-04T08:46:36Z</time>
      </trkpt>
      <trkpt lat="45.90701" lon="4.66948">
        <ele>404</ele>
        <time>2022-09-04T08:47:48Z</time>
      </trkpt>
      <trkpt lat="45.90652" lon="4.66953">
        <ele>406</ele>
        <time>2022-09-04T08:48:54Z</time>
      </trkpt>
      <trkpt lat="45.90611" lon="4.66988">
        <ele>407</ele>
        <time>2022-09-04T08:49:57Z</time>
      </trkpt>
      <trkpt lat="45.90542" lon="4.67022">
        <ele>409</ele>
        <time>2022-09-04T08:51:35Z</time>
      </trkpt>
      <trkpt lat="45.90426" lon="4.67431">
        <ele>400</ele>
        <time>2022-09-04T08:58:25Z</time>
      </trkpt>
      <trkpt lat="45.90334" lon="4.67551">
        <ele>390</ele>
        <time>2022-09-04T09:01:11Z</time>
      </trkpt>
      <trkpt lat="45.90345" lon="4.67651">
        <ele>377</ele>
        <time>2022-09-04T09:02:45Z</time>
      </trkpt>
      <trkpt lat="45.90344" lon="4.67711">
        <ele>373</ele>
        <time>2022-09-04T09:03:40Z</time>
      </trkpt>
      <trkpt lat="45.9033" lon="4.6781">
        <ele>371</ele>
        <time>2022-09-04T09:05:14Z</time>
      </trkpt>
      <trkpt lat="45.90319" lon="4.68038">
        <ele>360</ele>
        <time>2022-09-04T09:08:47Z</time>
      </trkpt>
      <trkpt lat="45.90255" lon="4.68197">
        <ele>347</ele>
        <time>2022-09-04T09:11:37Z</time>
      </trkpt>
      <trkpt lat="45.90172" lon="4.68288">
        <ele>336</ele>
        <time>2022-09-04T09:13:56Z</time>
      </trkpt>
      <trkpt lat="45.90185" lon="4.68431">
        <ele>320</ele>
        <time>2022-09-04T09:16:10Z</time>
      </trkpt>
      <trkpt lat="45.90184" lon="4.6849">
        <ele>315</ele>
        <time>2022-09-04T09:17:05Z</time>
      </trkpt>
      <trkpt lat="45.90182" lon="4.68566">
        <ele>310</ele>
        <time>2022-09-04T09:18:16Z</time>
      </trkpt>
      <trkpt lat="45.90166" lon="4.68661">
        <ele>305</ele>
        <time>2022-09-04T09:19:47Z</time>
      </trkpt>
      <trkpt lat="45.90139" lon="4.68746">
        <ele>300</ele>
        <time>2022-09-04T09:21:13Z</time>
      </trkpt>
      <trkpt lat="45.90034" lon="4.68786">
        <ele>295</ele>
        <time>2022-09-04T09:23:38Z</time>
      </trkpt>
      <trkpt lat="45.90013" lon="4.68838">
        <ele>290</ele>
        <time>2022-09-04T09:24:34Z</time>
      </trkpt>
      <trkpt lat="45.8996" lon="4.68902">
        <ele>284</ele>
        <time>2022-09-04T09:26:06Z</time>
      </trkpt>
      <trkpt lat="45.89863" lon="4.68776">
        <ele>287</ele>
        <time>2022-09-04T09:29:01Z</time>
      </trkpt>
      <trkpt lat="45.89789" lon="4.68696">
        <ele>288</ele>
        <time>2022-09-04T09:31:05Z</time>
      </trkpt>
      <trkpt lat="45.89721" lon="4.68704">
        <ele>278</ele>
        <time>2022-09-04T09:32:36Z</time>
      </trkpt>
      <trkpt lat="45.89669" lon="4.68649">
        <ele>274</ele>
        <time>2022-09-04T09:34:02Z</time>
      </trkpt>
      <trkpt lat="45.89638" lon="4.6866">
        <ele>273</ele>
        <time>2022-09-04T09:34:44Z</time>
      </trkpt>
      <trkpt lat="45.89622" lon="4.6868">
        <ele>272</ele>
        <time>2022-09-04T09:35:13Z</time>
      </trkpt>
      <trkpt lat="45.89589" lon="4.68812">
        <ele>271</ele>
        <time>2022-09-04T09:37:23Z</time>
      </trkpt>
      <trkpt lat="45.89532" lon="4.68842">
        <ele>274</ele>
        <time>2022-09-04T09:38:44Z</time>
      </trkpt>
      <trkpt lat="45.89479" lon="4.68818">
        <ele>275</ele>
        <time>2022-09-04T09:39:58Z</time>
      </trkpt>
      <trkpt lat="45.89453" lon="4.68773">
        <ele>277</ele>
        <time>2022-09-04T09:40:52Z</time>
      </trkpt>
      <trkpt lat="45.89448" lon="4.68699">
        <ele>283</ele>
        <time>2022-09-04T09:42:01Z</time>
      </trkpt>
      <trkpt lat="45.89353" lon="4.68708">
        <ele>279</ele>
        <time>2022-09-04T09:44:09Z</time>
      </trkpt>
      <trkpt lat="45.89308" lon="4.68738">
        <ele>273</ele>
        <time>2022-09-04T09:45:15Z</time>
      </trkpt>
      <trkpt lat="45.89268" lon="4.68836">
        <ele>273</ele>
        <time>2022-09-04T09:47:00Z</time>
      </trkpt>
      <trkpt lat="45.89238" lon="4.68827">
        <ele>276</ele>
        <time>2022-09-04T09:47:41Z</time>
      </trkpt>
      <trkpt lat="45.89222" lon="4.68802">
        <ele>276</ele>
        <time>2022-09-04T09:48:13Z</time>
      </trkpt>
      <trkpt lat="45.89131" lon="4.68779">
        <ele>282</ele>
        <time>2022-09-04T09:50:16Z</time>
      </trkpt>
      <trkpt lat="45.89121" lon="4.68736">
        <ele>283</ele>
        <time>2022-09-04T09:50:58Z</time>
      </trkpt>
      <trkpt lat="45.89057" lon="4.68726">
        <ele>287</ele>
        <time>2022-09-04T09:52:24Z</time>
      </trkpt>
      <trkpt lat="45.88971" lon="4.68805">
        <ele>286</ele>
        <time>2022-09-04T09:54:40Z</time>
      </trkpt>
      <trkpt lat="45.88928" lon="4.68713">
        <ele>288</ele>
        <time>2022-09-04T09:56:23Z</time>
      </trkpt>
      <trkpt lat="45.88878" lon="4.68633">
        <ele>292</ele>
        <time>2022-09-04T09:58:03Z</time>
      </trkpt>
      <trkpt lat="45.88835" lon="4.6866">
        <ele>293</ele>
        <time>2022-09-04T09:59:06Z</time>
      </trkpt>
      <trkpt lat="45.88645" lon="4.68758">
        <ele>290</ele>
        <time>2022-09-04T10:03:35Z</time>
      </trkpt>
      <trkpt lat="45.8846" lon="4.68815">
        <ele>293</ele>
        <time>2022-09-04T10:07:48Z</time>
      </trkpt>
      <trkpt lat="45.88445" lon="4.68763">
        <ele>298</ele>
        <time>2022-09-04T10:08:40Z</time>
      </trkpt>
      <trkpt lat="45.88398" lon="4.68792">
        <ele>296</ele>
        <time>2022-09-04T10:09:48Z</time>
      </trkpt>
      <trkpt lat="45.88375" lon="4.68822">
        <ele>294</ele>
        <time>2022-09-04T10:10:30Z</time>
      </trkpt>
      <trkpt lat="45.88348" lon="4.68836">
        <ele>293</ele>
        <time>2022-09-04T10:11:08Z</time>
      </trkpt>
      <trkpt lat="45.88334" lon="4.68971">
        <ele>286</ele>
        <time>2022-09-04T10:13:15Z</time>
      </trkpt>
      <trkpt lat="45.88304" lon="4.69061">
        <ele>283</ele>
        <time>2022-09-04T10:14:47Z</time>
      </trkpt>
      <trkpt lat="45.88258" lon="4.69189">
        <ele>277</ele>
        <time>2022-09-04T10:17:01Z</time>
      </trkpt>
      <trkpt lat="45.88207" lon="4.69277">
        <ele>271</ele>
        <time>2022-09-04T10:18:48Z</time>
      </trkpt>
      <trkpt lat="45.88169" lon="4.69486">
        <ele>258</ele>
        <time>2022-09-04T10:22:08Z</time>
      </trkpt>
      <trkpt lat="45.88146" lon="4.69676">
        <ele>249</ele>
        <time>2022-09-04T10:25:07Z</time>
      </trkpt>
      <trkpt lat="45.8811" lon="4.6984">
        <ele>245</ele>
        <time>2022-09-04T10:27:47Z</time>
      </trkpt>
      <trkpt lat="45.88101" lon="4.69983">
        <ele>240</ele>
        <time>2022-09-04T10:30:00Z</time>
      </trkpt>
      <trkpt lat="45.8807" lon="4.701">
        <ele>234</ele>
        <time>2022-09-04T10:31:57Z</time>
      </trkpt>
      <trkpt lat="45.88023" lon="4.70188">
        <ele>231</ele>
        <time>2022-09-04T10:33:40Z</time>
      </trkpt>
      <trkpt lat="45.87989" lon="4.70207">
        <ele>231</ele>
        <time>2022-09-04T10:34:28Z</time>
      </trkpt>
      <trkpt lat="45.87964" lon="4.70248">
        <ele>231</ele>
        <time>2022-09-04T10:35:19Z</time>
      </trkpt>
      <trkpt lat="45.87948" lon="4.70368">
        <ele>229</ele>
        <time>2022-09-04T10:37:13Z</time>
      </trkpt>
      <trkpt lat="45.87905" lon="4.7059">
        <ele>223</ele>
        <time>2022-09-04T10:40:47Z</time>
      </trkpt>
      <trkpt lat="45.8788" lon="4.70778">
        <ele>223</ele>
        <time>2022-09-04T10:43:45Z</time>
      </trkpt>
      <trkpt lat="45.87855" lon="4.70922">
        <ele>224</ele>
        <time>2022-09-04T10:46:02Z</time>
      </trkpt>
      <trkpt lat="45.87795" lon="4.71173">
        <ele>227</ele>
        <time>2022-09-04T10:50:09Z</time>
      </trkpt>
      <trkpt lat="45.87685" lon="4.71269">
        <ele>225</ele>
        <time>2022-09-04T10:53:01Z</time>
      </trkpt>
      <trkpt lat="45.87633" lon="4.71307">
        <ele>225</ele>
        <time>2022-09-04T10:54:19Z</time>
      </trkpt>
      <trkpt lat="45.87625" lon="4.71363">
        <ele>225</ele>
        <time>2022-09-04T10:55:12Z</time>
      </trkpt>
      <trkpt lat="45.87534" lon="4.71381">
        <ele>225</ele>
        <time>2022-09-04T10:57:14Z</time>
      </trkpt>
      <trkpt lat="45.87515" lon="4.7137">
        <ele>225</ele>
        <time>2022-09-04T10:57:42Z</time>
      </trkpt>
      <trkpt lat="45.87503" lon="4.71391">
        <ele>224</ele>
        <time>2022-09-04T10:58:07Z</time>
      </trkpt>
      <trkpt lat="45.87479" lon="4.71376">
        <ele>221</ele>
        <time>2022-09-04T10:58:42Z</time>
      </trkpt>
      <trkpt lat="45.87447" lon="4.7144">
        <ele>212</ele>
        <time>2022-09-04T10:59:55Z</time>
      </trkpt>
      <trkpt lat="45.87374" lon="4.71371">
        <ele>207</ele>
        <time>2022-09-04T11:01:52Z</time>
      </trkpt>
      <trkpt lat="45.8734" lon="4.7139">
        <ele>201</ele>
        <time>2022-09-04T11:02:40Z</time>
      </trkpt>
      <trkpt lat="45.87263" lon="4.71436">
        <ele>192</ele>
        <time>2022-09-04T11:04:32Z</time>
      </trkpt>
      <trkpt lat="45.87238" lon="4.71475">
        <ele>190</ele>
        <time>2022-09-04T11:05:21Z</time>
      </trkpt>
      <trkpt lat="45.8713" lon="4.71641">
        <ele>189</ele>
        <time>2022-09-04T11:08:52Z</time>
      </trkpt>
      <trkpt lat="45.87055" lon="4.71649">
        <ele>189</ele>
        <time>2022-09-04T11:10:32Z</time>
      </trkpt>
      <trkpt lat="45.86972" lon="4.71585">
        <ele>192</ele>
        <time>2022-09-04T11:12:38Z</time>
      </trkpt>
      <trkpt lat="45.86929" lon="4.71514">
        <ele>195</ele>
        <time>2022-09-04T11:14:05Z</time>
      </trkpt>
      <trkpt lat="45.86896" lon="4.71454">
        <ele>192</ele>
        <time>2022-09-04T11:15:16Z</time>
      </trkpt>
      <trkpt lat="45.86881" lon="4.71355">
        <ele>192</ele>
        <time>2022-09-04T11:16:51Z</time>
      </trkpt>
      <trkpt lat="45.8687" lon="4.71217">
        <ele>190</ele>
        <time>2022-09-04T11:19:00Z</time>
      </trkpt>
      <trkpt lat="45.86871" lon="4.711">
        <ele>191</ele>
        <time>2022-09-04T11:20:48Z</time>
      </trkpt>
      <trkpt lat="45.86888" lon="4.71073">
        <ele>191</ele>
        <time>2022-09-04T11:21:22Z</time>
      </trkpt>
      <trkpt lat="45.86872" lon="4.71055">
        <ele>190</ele>
        <time>2022-09-04T11:21:49Z</time>
      </trkpt>
      <trkpt lat="45.86839" lon="4.70918">
        <ele>192</ele>
        <time>2022-09-04T11:24:04Z</time>
      </trkpt>
      <trkpt lat="45.86771" lon="4.70794">
        <ele>195</ele>
        <time>2022-09-04T11:26:31Z</time>
      </trkpt>
      <trkpt lat="45.8677" lon="4.70757">
        <ele>196</ele>
        <time>2022-09-04T11:27:05Z</time>
      </trkpt>
      <trkpt lat="45.86754" lon="4.70736">
        <ele>196</ele>
        <time>2022-09-04T11:27:34Z</time>
      </trkpt>
      <trkpt lat="45.86716" lon="4.70702">
        <ele>197</ele>
        <time>2022-09-04T11:28:34Z</time>
      </trkpt>
      <trkpt lat="45.8667" lon="4.70634">
        <ele>199</ele>
        <time>2022-09-04T11:30:02Z</time>
      </trkpt>
      <trkpt lat="45.86649" lon="4.7065">
        <ele>199</ele>
        <time>2022-09-04T11:30:34Z</time>
      </trkpt>
      <trkpt lat="45.8656" lon="4.70632">
        <ele>197</ele>
        <time>2022-09-04T11:32:34Z</time>
      </trkpt>
      <trkpt lat="45.86496" lon="4.70563">
        <ele>195</ele>
        <time>2022-09-04T11:34:20Z</time>
      </trkpt>
      <trkpt lat="45.86402" lon="4.70582">
        <ele>196</ele>
        <time>2022-09-04T11:36:27Z</time>
      </trkpt>
      <trkpt lat="45.86383" lon="4.70559">
        <ele>197</ele>
        <time>2022-09-04T11:37:00Z</time>
      </trkpt>
      <trkpt lat="45.86375" lon="4.70518">
        <ele>197</ele>
        <time>2022-09-04T11:37:40Z</time>
      </trkpt>
      <trkpt lat="45.86393" lon="4.70469">
        <ele>197</ele>
        <time>2022-09-04T11:38:31Z</time>
      </trkpt>
      <trkpt lat="45.86379" lon="4.7041">
        <ele>198</ele>
        <time>2022-09-04T11:39:29Z</time>
      </trkpt>
      <trkpt lat="45.86344" lon="4.70355">
        <ele>198</ele>
        <time>2022-09-04T11:40:38Z</time>
      </trkpt>
      <trkpt lat="45.86323" lon="4.70312">
        <ele>197</ele>
        <time>2022-09-04T11:41:27Z</time>
      </trkpt>
      <trkpt lat="45.86334" lon="4.70261">
        <ele>198</ele>
        <time>2022-09-04T11:42:17Z</time>
      </trkpt>
      <trkpt lat="45.86369" lon="4.7019">
        <ele>195</ele>
        <time>2022-09-04T11:43:38Z</time>
      </trkpt>
      <trkpt lat="45.86395" lon="4.70066">
        <ele>193</ele>
        <time>2022-09-04T11:45:38Z</time>
      </trkpt>
      <trkpt lat="45.86401" lon="4.69905">
        <ele>194</ele>
        <time>2022-09-04T11:48:08Z</time>
      </trkpt>
      <trkpt lat="45.86366" lon="4.69813">
        <ele>196</ele>
        <time>2022-09-04T11:49:45Z</time>
      </trkpt>
      <trkpt lat="45.86323" lon="4.69744">
        <ele>194</ele>
        <time>2022-09-04T11:51:11Z</time>
      </trkpt>
      <trkpt lat="45.86285" lon="4.6975">
        <ele>193</ele>
        <time>2022-09-04T11:52:02Z</time>
      </trkpt>
      <trkpt lat="45.86212" lon="4.69791">
        <ele>195</ele>
        <time>2022-09-04T11:53:47Z</time>
      </trkpt>
      <trkpt lat="45.86196" lon="4.69766">
        <ele>195</ele>
        <time>2022-09-04T11:54:18Z</time>
      </trkpt>
      <trkpt lat="45.86175" lon="4.69632">
        <ele>195</ele>
        <time>2022-09-04T11:56:26Z</time>
      </trkpt>
      <trkpt lat="45.8609" lon="4.69586">
        <ele>197</ele>
        <time>2022-09-04T11:58:27Z</time>
      </trkpt>
      <trkpt lat="45.8603" lon="4.69533">
        <ele>198</ele>
        <time>2022-09-04T12:00:01Z</time>
      </trkpt>
      <trkpt lat="45.85991" lon="4.69471">
        <ele>200</ele>
        <time>2022-09-04T12:01:19Z</time>
      </trkpt>
      <trkpt lat="45.85944" lon="4.69539">
        <ele>202</ele>
        <time>2022-09-04T12:02:48Z</time>
      </trkpt>
      <trkpt lat="45.85884" lon="4.69436">
        <ele>202</ele>
        <time>2022-09-04T12:04:53Z</time>
      </trkpt>
      <trkpt lat="45.85834" lon="4.6933">
        <ele>196</ele>
        <time>2022-09-04T12:06:52Z</time>
      </trkpt>
      <trkpt lat="45.85828" lon="4.69288">
        <ele>197</ele>
        <time>2022-09-04T12:07:32Z</time>
      </trkpt>
      <trkpt lat="45.85835" lon="4.69255">
        <ele>197</ele>
        <time>2022-09-04T12:08:04Z</time>
      </trkpt>
      <trkpt lat="45.85853" lon="4.69118">
        <ele>198</ele>
        <time>2022-09-04T12:10:13Z</time>
      </trkpt>
      <trkpt lat="45.85862" lon="4.69047">
        <ele>197</ele>
        <time>2022-09-04T12:11:20Z</time>
      </trkpt>
      <trkpt lat="45.85872" lon="4.69025">
        <ele>197</ele>
        <time>2022-09-04T12:11:45Z</time>
      </trkpt>
      <trkpt lat="45.85863" lon="4.68958">
        <ele>197</ele>
        <time>2022-09-04T12:12:48Z</time>
      </trkpt>
      <trkpt lat="45.85868" lon="4.68894">
        <ele>197</ele>
        <time>2022-09-04T12:13:48Z</time>
      </trkpt>
      <trkpt lat="45.85877" lon="4.68791">
        <ele>198</ele>
        <time>2022-09-04T12:15:24Z</time>
      </trkpt>
      <trkpt lat="45.8589" lon="4.68631">
        <ele>198</ele>
        <time>2022-09-04T12:17:54Z</time>
      </trkpt>
      <trkpt lat="45.8587" lon="4.68456">
        <ele>200</ele>
        <time>2022-09-04T12:20:39Z</time>
      </trkpt>
      <trkpt lat="45.85823" lon="4.68346">
        <ele>200</ele>
        <time>2022-09-04T12:22:39Z</time>
      </trkpt>
      <trkpt lat="45.85744" lon="4.68269">
        <ele>199</ele>
        <time>2022-09-04T12:24:46Z</time>
      </trkpt>
      <trkpt lat="45.85647" lon="4.68139">
        <ele>199</ele>
        <time>2022-09-04T12:27:43Z</time>
      </trkpt>
      <trkpt lat="45.85615" lon="4.68187">
        <ele>201</ele>
        <time>2022-09-04T12:28:45Z</time>
      </trkpt>
      <trkpt lat="45.85577" lon="4.68096">
        <ele>200</ele>
        <time>2022-09-04T12:30:24Z</time>
      </trkpt>
      <trkpt lat="45.85534" lon="4.67981">
        <ele>205</ele>
        <time>2022-09-04T12:32:25Z</time>
      </trkpt>
    </trkseg>
  </trk>
</gpx>